createdAt,value
2023-04-18T00:00:11.175Z,30.30
2023-04-18T00:02:40.304Z,26.38
2023-04-18T00:05:09.645Z,26.20
2023-04-18T00:07:38.092Z,28.73
2023-04-18T00:10:09.107Z,28.58
2023-04-18T00:12:37.505Z,28.13
2023-04-18T00:15:08.351Z,27.70
2023-04-18T00:17:38.727Z,27.83
2023-04-18T00:20:10.444Z,26.80
2023-04-18T00:22:42.428Z,28.55
2023-04-18T00:25:12.527Z,26.70
2023-04-18T00:27:40.919Z,27.95
2023-04-18T00:30:10.732Z,27.98
2023-04-18T00:32:39.196Z,26.88
2023-04-18T00:35:08.143Z,27.83
2023-04-18T00:37:37.280Z,26.73
2023-04-18T00:40:09.226Z,28.60
2023-04-18T00:42:39.008Z,28.13
2023-04-18T00:45:08.171Z,28.08
2023-04-18T00:47:36.701Z,29.13
2023-04-18T00:50:06.166Z,29.10
2023-04-18T00:52:35.878Z,26.20
2023-04-18T00:55:05.858Z,28.40
2023-04-18T00:57:34.379Z,24.80
2023-04-18T01:00:08.843Z,27.85
2023-04-18T01:02:38.375Z,27.92
2023-04-18T01:05:08.211Z,28.25
2023-04-18T01:07:40.711Z,26.35
2023-04-18T01:10:11.224Z,28.70
2023-04-18T01:12:39.535Z,28.88
2023-04-18T01:15:09.993Z,24.95
2023-04-18T01:17:38.625Z,26.80
2023-04-18T01:20:08.444Z,28.20
2023-04-18T01:22:36.809Z,29.30
2023-04-18T01:25:11.339Z,27.08
2023-04-18T01:27:39.688Z,24.33
2023-04-18T01:30:09.628Z,28.05
2023-04-18T01:32:38.063Z,25.83
2023-04-18T01:35:07.316Z,26.35
2023-04-18T01:37:35.677Z,27.40
2023-04-18T01:40:04.553Z,27.92
2023-04-18T01:42:34.304Z,28.30
2023-04-18T01:45:02.651Z,32.17
2023-04-18T01:47:31.088Z,31.52
2023-04-18T01:49:59.426Z,28.02
2023-04-18T01:52:27.820Z,27.60
2023-04-18T01:54:56.183Z,25.40
2023-04-18T01:57:24.579Z,26.17
2023-04-18T01:59:54.259Z,26.15
2023-04-18T02:02:22.820Z,29.92
2023-04-18T02:04:51.425Z,27.88
2023-04-18T02:07:19.808Z,28.45
2023-04-18T02:09:48.155Z,28.73
2023-04-18T02:12:16.556Z,25.98
2023-04-18T02:14:44.907Z,28.30
2023-04-18T02:17:14.579Z,28.30
2023-04-18T02:19:42.965Z,26.40
2023-04-18T02:22:11.282Z,26.95
2023-04-18T02:24:39.623Z,24.70
2023-04-18T02:27:07.979Z,26.42
2023-04-18T02:29:36.300Z,25.40
2023-04-18T02:32:04.769Z,26.90
2023-04-18T02:34:34.647Z,24.83
2023-04-18T02:37:03.106Z,26.23
2023-04-18T02:39:31.616Z,25.88
2023-04-18T02:42:00.058Z,28.05
2023-04-18T02:44:28.453Z,27.42
2023-04-18T02:46:56.780Z,26.42
2023-04-18T02:49:25.114Z,27.55
2023-04-18T02:51:56.849Z,27.08
2023-04-18T02:54:25.682Z,27.17
2023-04-18T02:56:55.399Z,28.83
2023-04-18T02:59:23.880Z,27.58
2023-04-18T03:01:52.389Z,25.52
2023-04-18T03:04:21.269Z,25.88
2023-04-18T03:06:50.193Z,25.45
2023-04-18T03:09:19.965Z,22.40
2023-04-18T03:11:48.292Z,27.98
2023-04-18T03:14:16.606Z,22.98
2023-04-18T03:16:45.209Z,26.48
2023-04-18T03:19:13.602Z,24.70
2023-04-18T03:21:41.958Z,23.08
2023-04-18T03:24:12.057Z,26.13
2023-04-18T03:26:42.120Z,23.63
2023-04-18T03:29:10.449Z,24.02
2023-04-18T03:31:38.869Z,25.27
2023-04-18T03:34:07.254Z,25.13
2023-04-18T03:36:42.778Z,24.98
2023-04-18T03:39:11.126Z,26.20
2023-04-18T03:41:39.476Z,25.10
2023-04-18T03:44:09.974Z,24.10
2023-04-18T03:46:38.538Z,27.60
2023-04-18T03:49:07.150Z,25.50
2023-04-18T03:51:43.748Z,25.50
2023-04-18T03:54:12.333Z,24.23
2023-04-18T03:56:41.231Z,26.70
2023-04-18T03:59:11.125Z,25.85
2023-04-18T04:01:39.534Z,26.92
2023-04-18T04:04:09.319Z,26.42
2023-04-18T04:06:38.039Z,27.58
2023-04-18T04:09:06.374Z,23.33
2023-04-18T04:11:34.754Z,25.63
2023-04-18T04:14:03.258Z,26.08
2023-04-18T04:16:33.133Z,27.08
2023-04-18T04:19:01.602Z,24.75
2023-04-18T04:21:31.304Z,25.80
2023-04-18T04:23:59.621Z,27.35
2023-04-18T04:26:28.297Z,24.40
2023-04-18T04:28:57.375Z,23.13
2023-04-18T04:31:25.766Z,24.35
2023-04-18T04:33:55.497Z,26.45
2023-04-18T04:36:27.195Z,25.67
2023-04-18T04:38:55.637Z,23.83
2023-04-18T04:41:24.708Z,25.40
2023-04-18T04:43:53.850Z,25.00
2023-04-18T04:46:23.231Z,24.63
2023-04-18T04:48:53.223Z,24.20
2023-04-18T04:51:23.008Z,26.45
2023-04-18T04:53:51.382Z,25.15
2023-04-18T04:56:19.859Z,28.27
2023-04-18T04:58:48.190Z,24.65
2023-04-18T05:01:16.843Z,25.60
2023-04-18T05:03:45.593Z,27.30
2023-04-18T05:06:14.179Z,27.58
2023-04-18T05:08:43.913Z,25.67
2023-04-18T05:11:12.298Z,26.60
2023-04-18T05:13:40.709Z,28.73
2023-04-18T05:16:09.164Z,26.48
2023-04-18T05:18:39.306Z,26.50
2023-04-18T05:21:07.943Z,25.95
2023-04-18T05:23:37.321Z,28.25
2023-04-18T05:26:07.549Z,27.08
2023-04-18T05:28:35.866Z,25.77
2023-04-18T05:31:04.314Z,33.05
2023-04-18T05:33:33.124Z,26.25
2023-04-18T05:36:01.539Z,27.88
2023-04-18T05:38:29.940Z,27.77
2023-04-18T05:41:00.307Z,27.30
2023-04-18T05:43:30.222Z,30.30
2023-04-18T05:45:58.656Z,28.52
2023-04-18T05:48:27.102Z,29.98
2023-04-18T05:50:55.779Z,35.15
2023-04-18T05:53:24.300Z,29.05
2023-04-18T05:55:53.027Z,28.15
2023-04-18T05:58:21.459Z,29.10
2023-04-18T06:00:51.497Z,27.23
2023-04-18T06:03:20.239Z,28.20
2023-04-18T06:05:49.077Z,27.05
2023-04-18T06:08:17.435Z,26.55
2023-04-18T06:10:45.786Z,27.50
2023-04-18T06:13:14.180Z,32.00
2023-04-18T06:15:42.710Z,29.73
2023-04-18T06:18:12.526Z,26.67
2023-04-18T06:20:42.176Z,25.48
2023-04-18T06:23:10.591Z,25.40
2023-04-18T06:25:40.962Z,25.02
2023-04-18T06:28:09.489Z,27.13
2023-04-18T06:30:37.963Z,31.15
2023-04-18T06:33:10.435Z,23.83
2023-04-18T06:35:40.318Z,26.83
2023-04-18T06:38:08.871Z,25.55
2023-04-18T06:40:37.338Z,31.58
2023-04-18T06:43:05.839Z,29.25
2023-04-18T06:45:34.501Z,29.20
2023-04-18T06:48:04.978Z,25.50
2023-04-18T06:50:33.418Z,24.58
2023-04-18T06:53:03.631Z,23.98
2023-04-18T06:55:32.152Z,24.70
2023-04-18T06:58:01.219Z,25.92
2023-04-18T07:00:29.665Z,23.67
2023-04-18T07:02:58.536Z,26.45
2023-04-18T07:05:27.055Z,28.38
2023-04-18T07:07:55.422Z,34.00
2023-04-18T07:10:25.437Z,26.50
2023-04-18T07:12:53.789Z,25.63
2023-04-18T07:15:22.142Z,23.85
2023-04-18T07:17:50.551Z,23.25
2023-04-18T07:20:18.957Z,24.77
2023-04-18T07:22:48.132Z,23.23
2023-04-18T07:25:16.513Z,26.05
2023-04-18T07:27:47.484Z,26.20
2023-04-18T07:30:16.350Z,23.75
2023-04-18T07:32:44.780Z,25.38
2023-04-18T07:35:15.422Z,25.42
2023-04-18T07:37:44.154Z,25.80
2023-04-18T07:40:13.528Z,23.20
2023-04-18T07:42:43.232Z,26.17
2023-04-18T07:45:13.436Z,28.90
2023-04-18T07:47:42.013Z,28.45
2023-04-18T07:50:11.349Z,23.23
2023-04-18T07:52:39.852Z,26.15
2023-04-18T07:55:09.249Z,23.52
2023-04-18T07:57:37.604Z,24.80
2023-04-18T08:00:07.898Z,21.92
2023-04-18T08:02:38.081Z,26.75
2023-04-18T08:05:07.478Z,22.75
2023-04-18T08:07:36.149Z,23.05
2023-04-18T08:10:04.968Z,26.42
2023-04-18T08:12:33.476Z,24.40
2023-04-18T08:15:01.880Z,24.20
2023-04-18T08:17:31.105Z,23.92
2023-04-18T08:20:04.895Z,19.83
2023-04-18T08:22:33.249Z,24.50
2023-04-18T08:25:05.404Z,25.85
2023-04-18T08:27:34.411Z,24.45
2023-04-18T08:30:04.450Z,23.85
2023-04-18T08:32:33.211Z,24.95
2023-04-18T08:35:04.029Z,26.83
2023-04-18T08:37:35.328Z,22.50
2023-04-18T08:40:04.944Z,24.02
2023-04-18T08:42:33.322Z,27.60
2023-04-18T08:45:02.678Z,23.27
2023-04-18T08:47:31.437Z,23.92
2023-04-18T08:49:59.947Z,22.88
2023-04-18T08:52:31.138Z,23.85
2023-04-18T08:54:59.673Z,23.70
2023-04-18T08:57:28.052Z,22.90
2023-04-18T08:59:56.642Z,23.45
2023-04-18T09:02:39.109Z,33.22
2023-04-18T09:05:13.684Z,22.85
2023-04-18T09:10:12.717Z,24.48
2023-04-18T09:12:50.209Z,26.65
2023-04-18T09:15:23.559Z,20.55
2023-04-18T09:17:53.995Z,24.33
2023-04-18T09:20:37.885Z,25.95
2023-04-18T09:23:11.483Z,20.70
2023-04-18T09:25:46.326Z,24.20
2023-04-18T09:28:27.035Z,23.38
2023-04-18T09:30:56.880Z,27.02
2023-04-18T09:33:32.624Z,24.50
2023-04-18T09:36:19.638Z,21.45
2023-04-18T09:38:50.379Z,25.90
2023-04-18T09:41:21.390Z,20.30
2023-04-18T09:43:50.413Z,25.50
2023-04-18T09:46:18.874Z,21.20
2023-04-18T09:48:47.309Z,22.63
2023-04-18T09:51:16.956Z,29.50
2023-04-18T09:53:47.474Z,26.15
2023-04-18T09:56:25.927Z,28.20
2023-04-18T09:58:57.935Z,21.73
2023-04-18T10:01:29.159Z,20.92
2023-04-18T10:03:58.735Z,22.90
2023-04-18T10:06:29.665Z,23.67
2023-04-18T10:08:58.998Z,32.13
2023-04-18T10:11:28.914Z,22.98
2023-04-18T10:13:59.571Z,25.20
2023-04-18T10:16:29.078Z,22.10
2023-04-18T10:18:58.354Z,25.90
2023-04-18T10:21:30.914Z,25.67
2023-04-18T10:23:59.440Z,22.42
2023-04-18T10:26:50.116Z,22.08
2023-04-18T10:29:18.823Z,21.48
2023-04-18T10:31:47.983Z,21.08
2023-04-18T10:34:19.679Z,22.73
2023-04-18T10:37:06.287Z,26.45
2023-04-18T10:39:49.823Z,23.10
2023-04-18T10:42:20.342Z,21.35
2023-04-18T10:45:18.451Z,23.27
2023-04-18T10:47:47.008Z,28.65
2023-04-18T10:50:16.868Z,31.77
2023-04-18T10:52:45.546Z,20.95
2023-04-18T10:55:20.123Z,23.15
2023-04-18T10:57:51.526Z,24.88
2023-04-18T11:00:21.824Z,23.20
2023-04-18T11:02:53.813Z,21.70
2023-04-18T11:05:24.714Z,29.85
2023-04-18T11:07:53.532Z,23.75
2023-04-18T11:10:25.593Z,25.40
2023-04-18T11:12:56.665Z,23.77
2023-04-18T11:15:27.144Z,24.40
2023-04-18T11:17:59.574Z,21.95
2023-04-18T11:20:28.516Z,19.92
2023-04-18T11:22:58.734Z,23.83
2023-04-18T11:25:29.449Z,20.33
2023-04-18T11:28:01.856Z,22.63
2023-04-18T11:30:37.438Z,23.70
2023-04-18T11:33:07.317Z,23.75
2023-04-18T11:35:39.152Z,25.42
2023-04-18T11:38:07.699Z,21.88
2023-04-18T11:40:39.899Z,21.13
2023-04-18T11:43:09.764Z,25.67
2023-04-18T11:45:38.310Z,21.90
2023-04-18T11:48:06.903Z,24.13
2023-04-18T11:50:38.285Z,20.90
2023-04-18T11:53:06.755Z,21.75
2023-04-18T11:55:35.504Z,23.10
2023-04-18T11:58:04.497Z,25.27
2023-04-18T12:00:35.926Z,21.75
2023-04-18T12:03:06.057Z,19.77
2023-04-18T12:05:36.250Z,23.60
2023-04-18T12:08:09.925Z,22.58
2023-04-18T12:10:40.103Z,28.48
2023-04-18T12:13:09.931Z,25.25
2023-04-18T12:15:42.067Z,28.55
2023-04-18T12:18:15.725Z,22.58
2023-04-18T12:20:50.407Z,25.17
2023-04-18T12:23:35.714Z,22.73
2023-04-18T12:26:05.732Z,26.33
2023-04-18T12:28:35.267Z,29.60
2023-04-18T12:31:07.249Z,25.58
2023-04-18T12:33:36.943Z,26.80
2023-04-18T12:36:08.205Z,27.60
2023-04-18T12:38:36.694Z,22.00
2023-04-18T12:41:05.495Z,23.98
2023-04-18T12:43:33.962Z,23.33
2023-04-18T12:46:02.391Z,22.35
2023-04-18T12:48:32.199Z,23.02
2023-04-18T12:51:00.576Z,48.83
2023-04-18T12:53:29.081Z,24.52
2023-04-18T12:55:57.515Z,25.05
2023-04-18T12:58:26.078Z,24.23
2023-04-18T13:00:54.618Z,24.27
2023-04-18T13:03:23.736Z,26.77
2023-04-18T13:05:54.914Z,27.20
2023-04-18T13:08:23.770Z,26.67
2023-04-18T13:10:52.147Z,32.58
2023-04-18T13:13:20.662Z,29.58
2023-04-18T13:15:49.146Z,32.80
2023-04-18T13:18:17.645Z,41.55
2023-04-18T13:20:49.614Z,65.22
2023-04-18T13:23:19.447Z,27.75
2023-04-18T13:25:47.996Z,23.17
2023-04-18T13:28:16.407Z,22.60
2023-04-18T13:30:44.770Z,24.88
2023-04-18T13:33:13.321Z,26.90
2023-04-18T13:35:44.719Z,27.48
2023-04-18T13:38:14.240Z,24.92
2023-04-18T13:40:44.142Z,28.70
2023-04-18T13:43:18.013Z,23.25
2023-04-18T13:45:46.447Z,24.48
2023-04-18T13:48:16.377Z,23.30
2023-04-18T13:50:49.389Z,22.05
2023-04-18T13:53:18.562Z,22.92
2023-04-18T13:55:49.639Z,23.30
2023-04-18T13:58:18.767Z,36.63
2023-04-18T14:00:47.751Z,41.58
2023-04-18T14:03:16.897Z,28.05
2023-04-18T14:05:45.475Z,22.17
2023-04-18T14:08:14.359Z,22.08
2023-04-18T14:10:43.203Z,23.30
2023-04-18T14:13:13.750Z,19.83
2023-04-18T14:15:42.245Z,22.40
2023-04-18T14:18:10.791Z,20.30
2023-04-18T14:20:39.258Z,21.23
2023-04-18T14:23:11.137Z,21.92
2023-04-18T14:25:39.489Z,20.63
2023-04-18T14:28:12.995Z,23.83
2023-04-18T14:30:41.668Z,20.23
2023-04-18T14:33:10.474Z,24.75
2023-04-18T14:35:42.482Z,22.88
2023-04-18T14:38:11.172Z,23.88
2023-04-18T14:40:39.607Z,19.98
2023-04-18T14:43:08.002Z,24.02
2023-04-18T14:45:37.965Z,21.42
2023-04-18T14:48:08.791Z,25.23
2023-04-18T14:50:39.042Z,21.60
2023-04-18T14:53:08.179Z,21.23
2023-04-18T14:55:36.643Z,21.00
2023-04-18T14:58:05.367Z,19.35
2023-04-18T15:00:34.023Z,21.52
2023-04-18T15:03:05.516Z,21.30
2023-04-18T15:05:34.869Z,21.00
2023-04-18T15:08:04.563Z,21.00
2023-04-18T15:10:32.971Z,21.83
2023-04-18T15:13:05.073Z,21.38
2023-04-18T15:15:35.572Z,18.02
2023-04-18T15:18:09.473Z,19.85
2023-04-18T15:23:09.742Z,17.92
2023-04-18T15:25:38.140Z,17.70
2023-04-18T15:28:07.192Z,17.00
2023-04-18T15:30:35.675Z,17.25
2023-04-18T15:33:05.727Z,17.25
2023-04-18T15:35:34.242Z,17.50
2023-04-18T15:38:02.596Z,16.77
2023-04-18T15:40:32.931Z,15.48
2023-04-18T15:43:01.961Z,17.45
2023-04-18T15:45:30.434Z,15.32
2023-04-18T15:47:59.017Z,13.60
2023-04-18T15:50:29.873Z,15.75
2023-04-18T15:52:59.414Z,14.50
2023-04-18T15:55:28.075Z,13.23
2023-04-18T15:57:57.393Z,16.33
2023-04-18T16:00:26.672Z,19.75
2023-04-18T16:02:55.718Z,15.80
2023-04-18T16:05:24.504Z,16.65
2023-04-18T16:07:56.243Z,14.50
2023-04-18T16:10:25.209Z,12.25
2023-04-18T16:12:53.973Z,18.98
2023-04-18T16:15:22.676Z,12.65
2023-04-18T16:17:51.451Z,23.17
2023-04-18T16:20:20.175Z,14.07
2023-04-18T16:22:51.405Z,13.82
2023-04-18T16:25:21.505Z,13.13
2023-04-18T16:27:49.862Z,12.00
2023-04-18T16:30:20.735Z,11.38
2023-04-18T16:32:49.385Z,13.30
2023-04-18T16:35:17.812Z,12.45
2023-04-18T16:37:46.320Z,10.75
2023-04-18T16:40:15.382Z,12.88
2023-04-18T16:42:45.313Z,13.48
2023-04-18T16:45:13.678Z,12.10
2023-04-18T16:47:43.541Z,13.35
2023-04-18T16:50:12.439Z,11.43
2023-04-18T16:52:41.612Z,34.80
2023-04-18T16:55:11.029Z,13.18
2023-04-18T16:57:39.719Z,11.15
2023-04-18T17:00:13.713Z,11.07
2023-04-18T17:02:43.288Z,13.25
2023-04-18T17:05:27.247Z,11.45
2023-04-18T17:07:59.872Z,13.55
2023-04-18T17:10:40.601Z,22.70
2023-04-18T17:13:13.273Z,14.05
2023-04-18T17:15:56.629Z,13.50
2023-04-18T17:18:32.207Z,11.15
2023-04-18T17:21:05.590Z,11.93
2023-04-18T17:24:04.002Z,12.63
2023-04-18T17:26:49.712Z,11.73
2023-04-18T17:29:18.929Z,13.25
2023-04-18T17:31:48.754Z,14.05
2023-04-18T17:34:17.164Z,13.45
2023-04-18T17:36:45.645Z,12.70
2023-04-18T17:39:16.353Z,13.45
2023-04-18T17:41:46.323Z,11.52
2023-04-18T17:44:14.872Z,11.85
2023-04-18T17:46:43.285Z,12.05
2023-04-18T17:49:13.272Z,13.98
2023-04-18T17:51:42.006Z,15.98
2023-04-18T17:54:11.072Z,12.98
2023-04-18T17:56:42.293Z,11.70
2023-04-18T17:59:11.228Z,13.75
2023-04-18T18:01:42.437Z,14.60
2023-04-18T18:04:11.073Z,15.82
2023-04-18T18:06:42.206Z,12.57
2023-04-18T18:09:12.973Z,18.70
2023-04-18T18:11:41.510Z,13.90
2023-04-18T18:14:09.866Z,13.90
2023-04-18T18:16:39.767Z,14.43
2023-04-18T18:19:08.301Z,12.55
2023-04-18T18:21:37.035Z,14.60
2023-04-18T18:24:07.221Z,12.75
2023-04-18T18:26:36.092Z,12.80
2023-04-18T18:29:09.908Z,12.63
2023-04-18T18:31:38.691Z,11.85
2023-04-18T18:34:09.316Z,16.38
2023-04-18T18:36:37.750Z,13.60
2023-04-18T18:39:07.552Z,12.48
2023-04-18T18:41:35.958Z,13.98
2023-04-18T18:44:04.314Z,15.10
2023-04-18T18:46:32.724Z,12.15
2023-04-18T18:49:01.080Z,14.10
2023-04-18T18:51:29.456Z,15.30
2023-04-18T18:53:57.917Z,19.13
2023-04-18T18:56:27.674Z,12.85
2023-04-18T18:58:56.409Z,15.00
2023-04-18T19:01:24.829Z,13.45
2023-04-18T19:03:53.597Z,14.13
2023-04-18T19:06:22.031Z,13.30
2023-04-18T19:08:50.393Z,14.18
2023-04-18T19:11:19.307Z,13.13
2023-04-18T19:13:51.845Z,13.35
2023-04-18T19:16:20.695Z,13.20
2023-04-18T19:18:50.529Z,15.50
2023-04-18T19:21:20.285Z,12.63
2023-04-18T19:23:48.686Z,13.02
2023-04-18T19:26:16.989Z,15.45
2023-04-18T19:28:45.574Z,13.00
2023-04-18T19:31:15.477Z,14.60
2023-04-18T19:33:43.928Z,12.98
2023-04-18T19:36:12.350Z,17.58
2023-04-18T19:38:41.519Z,13.63
2023-04-18T19:41:09.895Z,15.48
2023-04-18T19:43:40.325Z,16.25
2023-04-18T19:46:08.764Z,14.50
2023-04-18T19:48:38.484Z,12.73
2023-04-18T19:51:06.913Z,12.90
2023-04-18T19:53:35.599Z,13.32
2023-04-18T19:56:04.297Z,13.32
2023-04-18T19:58:36.018Z,13.60
2023-04-18T20:01:06.157Z,17.08
2023-04-18T20:03:35.094Z,13.65
2023-04-18T20:06:06.232Z,15.07
2023-04-18T20:08:36.256Z,16.33
2023-04-18T20:11:07.513Z,14.55
2023-04-18T20:13:37.448Z,16.55
2023-04-18T20:16:07.409Z,14.07
2023-04-18T20:18:37.499Z,17.90
2023-04-18T20:21:09.762Z,17.83
2023-04-18T20:23:39.431Z,15.60
2023-04-18T20:26:09.100Z,16.60
2023-04-18T20:28:37.927Z,15.18
2023-04-18T20:31:07.150Z,16.15
2023-04-18T20:33:36.188Z,16.15
2023-04-18T20:36:05.458Z,15.50
2023-04-18T20:41:38.998Z,15.50
2023-04-18T20:44:09.965Z,17.25
2023-04-18T20:46:38.479Z,17.75
2023-04-18T20:49:07.714Z,17.17
2023-04-18T20:51:37.029Z,14.13
2023-04-18T20:54:07.103Z,14.27
2023-04-18T20:56:37.317Z,15.95
2023-04-18T20:59:05.743Z,15.95
2023-04-18T21:01:36.765Z,17.92
2023-04-18T21:04:06.245Z,17.02
2023-04-18T21:06:34.938Z,15.23
2023-04-18T21:09:03.703Z,15.95
2023-04-18T21:11:33.425Z,14.25
2023-04-18T21:14:03.731Z,15.82
2023-04-18T21:16:32.183Z,17.35
2023-04-18T21:19:00.680Z,18.33
2023-04-18T21:21:29.978Z,15.90
2023-04-18T21:23:58.364Z,16.85
2023-04-18T21:26:26.701Z,18.80
2023-04-18T21:28:58.201Z,17.33
2023-04-18T21:31:27.254Z,19.83
2023-04-18T21:33:56.503Z,18.70
2023-04-18T21:36:27.041Z,15.50
2023-04-18T21:38:56.708Z,16.60
2023-04-18T21:41:25.563Z,17.33
2023-04-18T21:43:54.506Z,15.50
2023-04-18T21:46:24.904Z,19.08
2023-04-18T21:48:53.390Z,18.17
2023-04-18T21:51:21.838Z,18.48
2023-04-18T21:53:50.321Z,17.25
2023-04-18T21:56:18.673Z,16.23
2023-04-18T21:58:47.582Z,18.27
2023-04-18T22:01:16.088Z,18.30
2023-04-18T22:03:46.208Z,17.90
2023-04-18T22:06:14.730Z,19.80
2023-04-18T22:08:43.154Z,19.70
2023-04-18T22:11:13.577Z,19.63
2023-04-18T22:13:45.016Z,15.48
2023-04-18T22:16:13.518Z,17.27
2023-04-18T22:18:41.898Z,17.63
2023-04-18T22:21:11.687Z,19.23
2023-04-18T22:23:40.003Z,17.50
2023-04-18T22:26:08.356Z,15.98
2023-04-18T22:28:37.064Z,18.58
2023-04-18T22:31:05.844Z,17.30
2023-04-18T22:33:34.445Z,16.88
2023-04-18T22:36:02.790Z,13.43
2023-04-18T22:38:32.544Z,16.15
2023-04-18T22:41:00.919Z,13.98
2023-04-18T22:43:29.392Z,15.52
2023-04-18T22:45:57.803Z,15.65
2023-04-18T22:48:26.269Z,15.55
2023-04-18T22:50:55.293Z,18.73
2023-04-18T22:53:23.649Z,15.13
2023-04-18T22:55:53.408Z,14.98
2023-04-18T22:58:21.780Z,14.13
2023-04-18T23:00:50.237Z,14.18
2023-04-18T23:03:18.855Z,14.82
2023-04-18T23:05:47.719Z,20.98
2023-04-18T23:08:18.657Z,14.52
2023-04-18T23:10:46.990Z,16.13
2023-04-18T23:13:16.740Z,13.20
2023-04-18T23:15:45.120Z,14.05
2023-04-18T23:18:13.607Z,15.48
2023-04-18T23:20:41.948Z,15.02
2023-04-18T23:23:10.309Z,15.23
2023-04-18T23:25:38.659Z,14.38
2023-04-18T23:28:07.898Z,21.77
2023-04-18T23:30:37.931Z,13.48
2023-04-18T23:33:06.591Z,13.85
2023-04-18T23:35:34.999Z,15.48
2023-04-18T23:38:03.433Z,17.05
2023-04-18T23:40:31.761Z,13.48
2023-04-18T23:43:00.148Z,14.32
2023-04-18T23:45:28.790Z,13.45
2023-04-18T23:47:58.708Z,11.57
2023-04-18T23:50:27.207Z,15.30
2023-04-18T23:52:55.552Z,12.55
2023-04-18T23:55:24.120Z,12.60
2023-04-18T23:57:52.448Z,13.10
